Time;durP1;ratioP1;P1;durP2;ratioP2;P2;SDS_P1;SDS_P2;PMS_P1;PMS_P2;Temp;Humidity;BMP_temperature;BMP_pressure;BME280_temperature;BME280_humidity;BME280_pressure;Samples;Min_cycle;Max_cycle;Signal;HPM_P1;HPM_P2
2022/03/13 00:02:08;;;;;;;19.57;15.90;;;12.50;47.60;;;;;;5115639;28;20816;-71
2022/03/13 00:04:35;;;;;;;17.03;13.70;;;12.40;47.90;;;;;;5115627;28;20435;-71
2022/03/13 00:07:09;;;;;;;17.20;14.73;;;12.50;48.60;;;;;;5115574;28;20471;-71
2022/03/13 00:09:37;;;;;;;18.10;15.17;;;12.50;48.30;;;;;;5115219;28;20471;-71
2022/03/13 00:12:07;;;;;;;15.27;13.70;;;12.50;48.10;;;;;;5115153;28;20835;-71
2022/03/13 00:14:34;;;;;;;18.00;14.20;;;12.50;48.10;;;;;;5115199;28;20463;-71
2022/03/13 00:17:01;;;;;;;19.27;14.27;;;12.60;48.10;;;;;;5115047;28;20466;-71
2022/03/13 00:19:33;;;;;;;17.23;14.40;;;12.60;48.20;;;;;;5115133;28;20449;-71
2022/03/13 00:22:00;;;;;;;15.97;14.37;;;12.60;48.30;;;;;;5114696;28;20428;-71
2022/03/13 00:24:26;;;;;;;17.30;13.90;;;12.60;48.60;;;;;;5114890;28;20474;-71
2022/03/13 00:26:54;;;;;;;17.03;13.73;;;12.70;48.90;;;;;;5114805;28;20838;-71
2022/03/13 00:29:22;;;;;;;16.97;14.97;;;12.70;48.90;;;;;;5114607;28;20498;-71
2022/03/13 00:31:48;;;;;;;17.40;14.23;;;12.70;48.90;;;;;;5114605;28;20489;-71
2022/03/13 00:34:15;;;;;;;19.60;14.80;;;12.70;49.00;;;;;;5115000;28;20443;-70
2022/03/13 00:36:43;;;;;;;16.57;13.47;;;12.70;49.20;;;;;;5114697;28;20474;-71
2022/03/13 00:39:11;;;;;;;16.67;14.80;;;12.70;49.30;;;;;;5114680;28;20447;-71
2022/03/13 00:41:38;;;;;;;17.23;15.40;;;12.60;49.20;;;;;;5114533;28;20510;-70
2022/03/13 00:44:06;;;;;;;20.00;14.70;;;12.60;49.30;;;;;;5114085;28;20454;-71
2022/03/13 00:46:33;;;;;;;26.00;15.37;;;12.60;49.50;;;;;;5114358;28;20475;-71
2022/03/13 00:49:00;;;;;;;24.13;17.10;;;12.60;49.60;;;;;;5114356;28;20446;-70
2022/03/13 00:51:26;;;;;;;24.20;18.77;;;12.60;49.60;;;;;;5114243;28;20501;-71
2022/03/13 00:53:55;;;;;;;20.67;15.10;;;12.60;49.50;;;;;;5114528;28;20489;-71
2022/03/13 00:56:22;;;;;;;22.40;17.00;;;12.50;49.40;;;;;;5114163;28;20474;-71
2022/03/13 00:58:48;;;;;;;16.83;15.10;;;12.50;49.50;;;;;;5114469;28;20443;-71
2022/03/13 01:01:17;;;;;;;16.97;15.17;;;12.50;49.60;;;;;;5114391;28;20461;-72
2022/03/13 01:03:49;;;;;;;17.60;15.53;;;12.50;49.80;;;;;;5113921;28;20819;-71
2022/03/13 01:06:17;;;;;;;18.83;16.70;;;12.50;49.90;;;;;;5114149;28;20447;-71
2022/03/13 01:08:46;;;;;;;18.63;16.40;;;12.50;50.10;;;;;;5114132;28;20856;-72
2022/03/13 01:11:16;;;;;;;17.27;15.43;;;12.50;50.20;;;;;;5113749;28;21070;-72
2022/03/13 01:13:43;;;;;;;17.70;15.23;;;12.40;50.20;;;;;;5114163;28;20450;-71
2022/03/13 01:16:14;;;;;;;16.70;14.97;;;12.40;50.20;;;;;;5113974;28;20438;-71
2022/03/13 01:18:44;;;;;;;19.27;15.17;;;12.30;50.10;;;;;;5114225;28;20442;-71
2022/03/13 01:21:11;;;;;;;15.83;14.17;;;12.30;50.10;;;;;;5114298;28;20450;-72
2022/03/13 01:23:39;;;;;;;16.60;14.73;;;12.30;50.10;;;;;;5113805;28;20965;-72
2022/03/13 01:26:36;;;;;;;16.40;14.33;;;12.30;50.10;;;;;;5113956;28;20949;-71
2022/03/13 01:29:05;;;;;;;16.10;14.40;;;12.30;50.00;;;;;;5113654;28;20457;-71
2022/03/13 01:31:33;;;;;;;16.67;14.87;;;12.20;49.80;;;;;;5114017;28;20499;-72
2022/03/13 01:34:01;;;;;;;16.50;14.80;;;12.20;49.80;;;;;;5113895;28;20454;-71
2022/03/13 01:36:28;;;;;;;16.77;14.23;;;12.20;49.80;;;;;;5113780;28;20808;-71
2022/03/13 01:38:57;;;;;;;18.80;14.73;;;12.10;49.70;;;;;;5113815;28;20455;-71
2022/03/13 01:41:26;;;;;;;16.57;13.00;;;12.10;49.50;;;;;;5113793;28;20468;-71
2022/03/13 01:43:54;;;;;;;15.83;13.80;;;11.90;49.40;;;;;;5113775;28;20446;-72
2022/03/13 01:46:21;;;;;;;16.07;12.90;;;11.80;49.70;;;;;;5113745;28;20836;-72
2022/03/13 01:48:54;;;;;;;16.93;13.13;;;11.80;49.90;;;;;;5113580;28;20443;-72
2022/03/13 01:51:22;;;;;;;16.40;14.17;;;11.70;49.60;;;;;;5113257;28;20999;-71
2022/03/13 01:53:53;;;;;;;14.70;12.83;;;11.70;50.00;;;;;;5113207;28;20490;-71
2022/03/13 01:56:21;;;;;;;14.30;12.80;;;11.70;50.10;;;;;;5113669;28;20825;-71
2022/03/13 01:58:51;;;;;;;16.30;14.20;;;11.70;50.10;;;;;;5113636;28;20499;-71
2022/03/13 02:01:19;;;;;;;15.37;13.87;;;11.70;50.10;;;;;;5113467;28;20940;-71
2022/03/13 02:03:46;;;;;;;15.03;13.53;;;11.70;50.10;;;;;;5113803;28;20450;-71
2022/03/13 02:06:13;;;;;;;16.57;13.43;;;11.70;50.10;;;;;;5113607;28;20481;-71
2022/03/13 02:08:40;;;;;;;15.57;13.90;;;11.70;50.20;;;;;;5113631;28;20447;-72
2022/03/13 02:11:08;;;;;;;15.20;13.70;;;11.60;50.00;;;;;;5113671;28;20478;-72
2022/03/13 02:13:36;;;;;;;16.87;14.77;;;11.60;49.90;;;;;;5113386;28;20479;-72
2022/03/13 02:16:03;;;;;;;17.00;14.83;;;11.50;49.90;;;;;;5113810;28;20537;-72
2022/03/13 02:18:31;;;;;;;16.73;13.53;;;11.50;49.90;;;;;;5117285;28;20450;-72
2022/03/13 02:20:58;;;;;;;16.63;13.07;;;11.50;49.90;;;;;;5117301;28;20446;-72
2022/03/13 02:23:28;;;;;;;16.27;13.30;;;11.50;49.80;;;;;;5117142;28;20450;-71
2022/03/13 02:25:57;;;;;;;14.90;12.87;;;11.50;49.60;;;;;;5116910;28;20968;-72
2022/03/13 02:28:26;;;;;;;15.07;13.47;;;11.40;49.40;;;;;;5117112;28;20860;-71
2022/03/13 02:30:57;;;;;;;18.03;13.27;;;11.40;49.30;;;;;;5116851;28;20510;-71
2022/03/13 02:33:24;;;;;;;16.03;12.90;;;11.40;49.70;;;;;;5117160;28;20457;-71
2022/03/13 02:35:53;;;;;;;13.47;11.80;;;11.40;49.00;;;;;;5116925;28;20450;-71
2022/03/13 02:38:20;;;;;;;15.83;13.27;;;11.30;49.00;;;;;;5116574;28;20477;-72
2022/03/13 02:40:48;;;;;;;14.57;12.70;;;11.30;49.00;;;;;;5116557;28;20940;-71
2022/03/13 02:43:16;;;;;;;17.63;12.73;;;11.30;49.10;;;;;;5117077;28;20450;-72
2022/03/13 02:45:43;;;;;;;17.70;12.77;;;11.30;48.80;;;;;;5116790;28;20450;-72
2022/03/13 02:48:11;;;;;;;15.40;12.07;;;11.30;48.80;;;;;;5116652;28;20490;-72
2022/03/13 02:50:38;;;;;;;15.70;12.87;;;11.20;48.60;;;;;;5116417;28;20978;-72
2022/03/13 02:53:05;;;;;;;13.63;12.13;;;11.20;48.40;;;;;;5116279;28;20970;-72
2022/03/13 02:55:32;;;;;;;12.37;11.03;;;11.20;48.50;;;;;;5116583;28;20451;-71
2022/03/13 02:58:01;;;;;;;14.40;12.90;;;11.10;48.40;;;;;;5116662;28;20466;-71
2022/03/13 03:00:46;;;;;;;16.17;13.90;;;11.20;48.70;;;;;;5116298;28;20967;-71
2022/03/13 03:03:17;;;;;;;14.27;12.20;;;11.10;48.60;;;;;;5116455;28;20435;-71
2022/03/13 03:05:44;;;;;;;15.40;12.60;;;11.10;48.40;;;;;;5116453;28;20443;-71
2022/03/13 03:08:12;;;;;;;15.43;12.00;;;11.10;48.40;;;;;;5116289;28;20470;-72
2022/03/13 03:10:39;;;;;;;13.50;11.70;;;11.10;48.30;;;;;;5116443;28;20541;-71
2022/03/13 03:13:08;;;;;;;14.63;11.13;;;11.00;48.20;;;;;;5116230;28;20435;-71
2022/03/13 03:15:36;;;;;;;15.40;12.30;;;11.00;48.10;;;;;;5116251;28;20458;-71
2022/03/13 03:18:04;;;;;;;15.00;12.40;;;11.00;48.00;;;;;;5115806;28;20473;-71
2022/03/13 03:20:31;;;;;;;17.90;12.50;;;11.00;48.00;;;;;;5116129;28;20447;-71
2022/03/13 03:22:58;;;;;;;13.40;11.40;;;11.00;47.80;;;;;;5116053;28;20451;-72
2022/03/13 03:25:27;;;;;;;14.20;12.23;;;11.00;47.50;;;;;;5116068;28;20820;-71
2022/03/13 03:27:56;;;;;;;15.10;12.13;;;10.90;47.20;;;;;;5116009;28;20486;-72
2022/03/13 03:30:26;;;;;;;15.13;12.00;;;10.90;47.20;;;;;;5115736;28;20459;-71
2022/03/13 03:32:54;;;;;;;16.10;12.47;;;11.00;47.00;;;;;;5115887;28;20474;-71
2022/03/13 03:35:22;;;;;;;14.90;11.60;;;10.90;46.80;;;;;;5115867;28;20500;-71
2022/03/13 03:37:49;;;;;;;14.10;11.30;;;10.90;46.90;;;;;;5115393;28;20839;-71
2022/03/13 03:40:16;;;;;;;13.90;11.77;;;10.90;46.90;;;;;;5115696;28;20454;-71
2022/03/13 03:42:43;;;;;;;14.30;11.97;;;10.90;46.50;;;;;;5115628;28;20466;-71
2022/03/13 03:45:11;;;;;;;12.77;11.47;;;10.90;44.90;;;;;;5116219;28;20458;-71
2022/03/13 03:47:39;;;;;;;14.10;11.43;;;10.80;44.40;;;;;;5115493;28;20467;-71
2022/03/13 03:50:07;;;;;;;14.27;11.73;;;10.70;45.30;;;;;;5115583;28;20443;-71
2022/03/13 03:52:34;;;;;;;11.83;10.53;;;10.60;46.00;;;;;;5115540;28;20475;-71
2022/03/13 03:55:00;;;;;;;13.40;11.67;;;10.60;45.80;;;;;;5115308;28;21035;-71
2022/03/13 03:57:27;;;;;;;12.03;10.77;;;10.50;44.60;;;;;;5115327;28;20567;-71
2022/03/13 03:59:54;;;;;;;12.80;10.20;;;10.50;45.70;;;;;;5115422;28;20814;-71
2022/03/13 04:02:21;;;;;;;13.10;11.30;;;10.50;45.60;;;;;;5115424;28;20446;-71
2022/03/13 04:04:49;;;;;;;12.67;10.47;;;10.50;45.80;;;;;;5115315;28;20451;-71
2022/03/13 04:07:16;;;;;;;12.77;10.70;;;10.50;45.60;;;;;;5115141;28;20469;-71
2022/03/13 04:09:43;;;;;;;14.70;11.33;;;10.60;46.20;;;;;;5115168;28;20447;-71
2022/03/13 04:12:11;;;;;;;12.27;10.60;;;10.60;45.80;;;;;;5114761;28;20850;-71
2022/03/13 04:14:38;;;;;;;13.43;10.80;;;10.60;45.30;;;;;;5115080;28;20546;-71
2022/03/13 04:17:05;;;;;;;13.97;11.93;;;10.60;45.20;;;;;;5114744;27;20812;-71
2022/03/13 04:19:32;;;;;;;13.90;11.60;;;10.60;44.90;;;;;;5114561;28;20979;-71
2022/03/13 04:22:00;;;;;;;13.73;11.33;;;10.70;44.90;;;;;;5114654;28;20839;-72
2022/03/13 04:24:29;;;;;;;19.03;11.00;;;10.70;43.70;;;;;;5114935;28;20447;-71
2022/03/13 04:26:57;;;;;;;12.53;10.60;;;10.60;44.20;;;;;;5114833;28;20513;-71
2022/03/13 04:29:24;;;;;;;17.17;11.90;;;10.60;42.90;;;;;;5114745;28;20466;-71
2022/03/13 04:31:52;;;;;;;17.20;13.17;;;10.50;43.40;;;;;;5114874;27;20502;-71
2022/03/13 04:34:19;;;;;;;12.90;11.53;;;10.50;44.30;;;;;;5114713;28;20466;-71
2022/03/13 04:36:47;;;;;;;15.33;11.37;;;10.40;44.60;;;;;;5115299;28;20471;-71
2022/03/13 04:39:15;;;;;;;12.77;10.20;;;10.50;45.20;;;;;;5113808;28;20976;-71
2022/03/13 04:41:42;;;;;;;11.57;10.37;;;10.50;45.30;;;;;;5114584;28;20439;-71
2022/03/13 04:44:14;;;;;;;13.67;11.13;;;10.60;45.40;;;;;;5114581;28;20512;-71
2022/03/13 04:46:41;;;;;;;14.17;12.77;;;10.60;45.20;;;;;;5114525;28;20467;-71
2022/03/13 04:49:08;;;;;;;14.97;11.90;;;10.60;43.70;;;;;;5114424;28;20458;-71
2022/03/13 04:51:36;;;;;;;12.77;11.47;;;10.60;42.80;;;;;;5114323;28;20489;-71
2022/03/13 04:54:03;;;;;;;13.00;11.60;;;10.50;43.70;;;;;;5114142;28;20941;-72
2022/03/13 04:56:32;;;;;;;13.03;11.30;;;10.40;43.50;;;;;;5114212;28;20492;-71
2022/03/13 04:59:00;;;;;;;13.17;10.13;;;10.50;43.90;;;;;;5114247;28;20450;-71
2022/03/13 05:01:27;;;;;;;13.00;10.37;;;10.50;44.00;;;;;;5114238;28;20524;-71
2022/03/13 05:03:55;;;;;;;14.33;11.57;;;10.50;44.20;;;;;;5114344;28;20447;-71
2022/03/13 05:06:21;;;;;;;13.90;11.30;;;10.50;44.40;;;;;;5114248;28;20503;-71
2022/03/13 05:08:49;;;;;;;12.30;10.90;;;10.60;44.30;;;;;;5113846;28;20933;-71
2022/03/13 05:11:16;;;;;;;14.63;10.83;;;10.50;43.80;;;;;;5114200;28;20451;-71
2022/03/13 05:13:44;;;;;;;11.20;10.00;;;10.50;43.80;;;;;;5113978;28;20431;-71
2022/03/13 05:16:11;;;;;;;13.43;10.50;;;10.50;43.50;;;;;;5114004;28;20439;-71
2022/03/13 05:18:38;;;;;;;12.50;9.90;;;10.50;43.40;;;;;;5113964;28;20447;-71
2022/03/13 05:21:04;;;;;;;13.07;11.10;;;10.50;43.10;;;;;;5113924;28;20445;-71
2022/03/13 05:23:31;;;;;;;13.70;10.60;;;10.50;41.50;;;;;;5113687;28;20924;-71
2022/03/13 05:25:58;;;;;;;14.00;11.00;;;10.40;41.00;;;;;;5113957;28;20447;-71
2022/03/13 05:28:25;;;;;;;11.70;10.17;;;10.30;39.70;;;;;;5114047;28;20538;-71
2022/03/13 05:30:53;;;;;;;12.10;10.50;;;10.10;40.20;;;;;;5113670;28;20465;-71
2022/03/13 05:33:20;;;;;;;12.50;10.60;;;10.00;40.30;;;;;;5113773;28;20850;-71
2022/03/13 05:35:46;;;;;;;11.00;9.13;;;9.90;43.40;;;;;;5113610;28;20941;-71
2022/03/13 05:38:13;;;;;;;15.13;10.73;;;10.00;43.00;;;;;;5113703;28;20467;-71
2022/03/13 05:40:40;;;;;;;15.37;10.67;;;10.00;43.50;;;;;;5113819;28;20546;-71
2022/03/13 05:43:07;;;;;;;13.43;9.47;;;10.00;42.50;;;;;;5113483;28;20457;-71
2022/03/13 05:45:36;;;;;;;11.67;9.50;;;10.00;42.50;;;;;;5114167;28;20451;-71
2022/03/13 05:48:07;;;;;;;12.67;11.03;;;10.00;41.70;;;;;;5113664;28;20470;-71
2022/03/13 05:50:34;;;;;;;13.27;10.33;;;10.00;41.70;;;;;;5113777;28;20434;-72
2022/03/13 05:53:01;;;;;;;13.13;10.27;;;10.00;42.40;;;;;;5117387;28;20474;-71
2022/03/13 05:55:28;;;;;;;10.93;9.40;;;10.10;42.90;;;;;;5117993;28;20537;-71
2022/03/13 05:57:56;;;;;;;10.37;9.37;;;10.10;42.90;;;;;;5117660;28;20475;-71
2022/03/13 06:00:23;;;;;;;12.87;9.77;;;10.20;42.70;;;;;;5117753;28;20442;-71
2022/03/13 06:02:50;;;;;;;13.70;10.97;;;10.20;43.00;;;;;;5117441;28;20941;-72
2022/03/13 06:05:19;;;;;;;13.83;10.10;;;10.30;43.00;;;;;;5117789;28;20495;-72
2022/03/13 06:07:47;;;;;;;11.63;10.20;;;10.30;42.70;;;;;;5117576;28;20482;-72
2022/03/13 06:10:14;;;;;;;14.43;10.23;;;10.30;42.40;;;;;;5117297;28;20975;-71
2022/03/13 06:12:41;;;;;;;12.50;9.67;;;10.30;42.40;;;;;;5117433;28;20516;-71
2022/03/13 06:15:11;;;;;;;12.30;9.80;;;10.30;43.10;;;;;;5117167;28;20963;-72
2022/03/13 06:17:39;;;;;;;12.57;9.87;;;10.40;42.30;;;;;;5117337;28;20478;-72
2022/03/13 06:20:08;;;;;;;15.23;9.20;;;10.40;41.70;;;;;;5117280;28;20507;-71
2022/03/13 06:22:36;;;;;;;13.10;10.10;;;10.40;41.80;;;;;;5117303;28;20447;-72
2022/03/13 06:25:04;;;;;;;12.60;10.83;;;10.40;42.00;;;;;;5117592;28;20505;-72
2022/03/13 06:27:30;;;;;;;18.20;9.37;;;10.40;42.10;;;;;;5117463;28;20463;-72
2022/03/13 06:30:00;;;;;;;13.90;10.37;;;10.40;42.20;;;;;;5117027;28;20470;-72
2022/03/13 06:32:28;;;;;;;11.73;9.90;;;10.40;42.30;;;;;;5117196;28;20491;-71
2022/03/13 06:34:55;;;;;;;15.23;10.03;;;10.40;41.80;;;;;;5116771;28;20810;-71
2022/03/13 06:37:22;;;;;;;16.43;10.30;;;10.40;41.90;;;;;;5117054;28;20467;-72
2022/03/13 06:39:50;;;;;;;14.47;10.67;;;10.40;42.10;;;;;;5116973;28;20447;-72
2022/03/13 06:42:17;;;;;;;10.73;9.63;;;10.40;42.20;;;;;;5117054;28;20468;-71
2022/03/13 06:44:44;;;;;;;12.83;10.50;;;10.40;42.30;;;;;;5117251;28;20443;-71
2022/03/13 06:47:11;;;;;;;17.17;11.73;;;10.50;42.00;;;;;;5116829;28;20473;-72
2022/03/13 06:49:37;;;;;;;13.07;10.10;;;10.50;41.60;;;;;;5116902;28;20453;-71
2022/03/13 06:52:05;;;;;;;14.30;9.60;;;10.50;41.40;;;;;;5116487;28;20462;-72
2022/03/13 06:54:32;;;;;;;14.20;10.60;;;10.50;41.50;;;;;;5116693;28;20451;-71
2022/03/13 06:57:00;;;;;;;12.40;10.13;;;10.50;41.30;;;;;;5116699;28;20473;-72
2022/03/13 06:59:26;;;;;;;12.13;10.03;;;10.60;41.30;;;;;;5116813;28;20451;-72
2022/03/13 07:01:53;;;;;;;11.10;9.90;;;10.60;41.10;;;;;;5116053;28;20442;-72
2022/03/13 07:04:20;;;;;;;12.50;10.00;;;10.50;40.80;;;;;;5116643;28;20451;-71
2022/03/13 07:06:47;;;;;;;11.70;10.37;;;10.60;41.20;;;;;;5116530;28;20474;-72
2022/03/13 07:09:13;;;;;;;11.83;10.07;;;10.60;41.30;;;;;;5116495;28;20447;-72
2022/03/13 07:11:46;;;;;;;13.60;10.70;;;10.60;40.90;;;;;;5116410;28;20451;-72
2022/03/13 07:14:16;;;;;;;14.33;10.70;;;10.60;41.10;;;;;;5116585;28;20972;-72
2022/03/13 07:16:43;;;;;;;14.53;10.90;;;10.70;41.30;;;;;;5115886;28;20964;-72
2022/03/13 07:19:10;;;;;;;16.20;11.30;;;10.70;41.50;;;;;;5116300;28;20443;-72
2022/03/13 07:21:38;;;;;;;13.87;11.93;;;10.70;41.40;;;;;;5116321;28;20462;-72
2022/03/13 07:24:05;;;;;;;13.37;10.90;;;10.70;41.60;;;;;;5116672;28;20447;-72
2022/03/13 07:26:32;;;;;;;12.83;11.07;;;10.70;41.50;;;;;;5115582;28;21007;-72
2022/03/13 07:29:01;;;;;;;13.83;11.00;;;10.80;41.70;;;;;;5115960;28;20455;-73
2022/03/13 07:31:29;;;;;;;12.53;10.97;;;10.80;41.10;;;;;;5116086;28;20526;-72
2022/03/13 07:33:56;;;;;;;13.70;11.20;;;10.80;41.20;;;;;;5116066;28;20502;-72
2022/03/13 07:36:23;;;;;;;11.13;9.90;;;10.90;41.30;;;;;;5115819;28;20474;-72
2022/03/13 07:38:50;;;;;;;10.53;9.47;;;10.90;41.30;;;;;;5115891;28;20438;-72
2022/03/13 07:41:17;;;;;;;12.93;10.67;;;10.90;41.10;;;;;;5115582;28;20971;-72
2022/03/13 07:43:44;;;;;;;15.30;11.17;;;11.10;40.60;;;;;;5115846;28;20446;-71
2022/03/13 07:46:11;;;;;;;12.13;10.67;;;11.10;40.60;;;;;;5115305;28;20454;-71
2022/03/13 07:48:39;;;;;;;14.43;11.13;;;11.20;40.70;;;;;;5115784;28;20589;-72
2022/03/13 07:51:07;;;;;;;11.47;10.37;;;11.30;40.20;;;;;;5115629;28;20447;-71
2022/03/13 07:53:34;;;;;;;11.10;9.90;;;11.30;40.10;;;;;;5115608;28;20573;-71
2022/03/13 07:56:01;;;;;;;12.17;9.80;;;11.40;40.30;;;;;;5120351;28;20462;-72
2022/03/13 07:58:28;;;;;;;11.27;10.10;;;11.40;39.50;;;;;;5122108;28;20458;-72
2022/03/13 08:00:55;;;;;;;12.70;9.63;;;11.40;40.20;;;;;;5120141;28;20785;-72
2022/03/13 08:03:24;;;;;;;11.63;10.43;;;11.50;39.90;;;;;;5120073;28;20470;-72
2022/03/13 08:05:53;;;;;;;13.30;11.10;;;11.50;39.70;;;;;;5120568;28;20447;-72
2022/03/13 08:08:20;;;;;;;11.60;10.17;;;11.50;38.50;;;;;;5116881;28;20463;-72
2022/03/13 08:10:47;;;;;;;13.87;11.57;;;11.60;39.40;;;;;;5115271;28;20447;-72
2022/03/13 08:13:13;;;;;;;13.37;10.10;;;11.60;39.30;;;;;;5115210;28;20478;-71
2022/03/13 08:15:40;;;;;;;12.07;10.83;;;11.70;39.10;;;;;;5114764;28;20434;-72
2022/03/13 08:18:09;;;;;;;12.90;10.80;;;11.70;39.20;;;;;;5116032;28;20462;-72
2022/03/13 08:20:36;;;;;;;12.53;10.53;;;11.70;39.30;;;;;;5115350;28;20885;-72
2022/03/13 08:23:04;;;;;;;11.90;10.70;;;11.80;39.40;;;;;;5114894;28;20447;-72
2022/03/13 08:25:31;;;;;;;13.90;10.40;;;11.90;39.50;;;;;;5114826;28;20447;-72
2022/03/13 08:27:58;;;;;;;12.23;10.30;;;11.90;39.20;;;;;;5115268;28;20469;-72
2022/03/13 08:30:24;;;;;;;12.37;10.87;;;12.00;39.20;;;;;;5114601;28;20458;-72
2022/03/13 08:32:51;;;;;;;14.37;11.07;;;12.00;39.40;;;;;;5114808;28;20892;-71
2022/03/13 08:35:19;;;;;;;13.20;11.17;;;12.10;39.20;;;;;;5114876;28;20450;-71
2022/03/13 08:37:45;;;;;;;12.03;10.83;;;12.20;39.30;;;;;;5114870;28;20566;-71
2022/03/13 08:40:14;;;;;;;13.50;11.07;;;12.30;39.20;;;;;;5114754;28;20830;-71
2022/03/13 08:42:41;;;;;;;11.37;10.10;;;12.40;39.00;;;;;;5114693;28;20455;-72
2022/03/13 08:45:11;;;;;;;13.63;10.80;;;12.50;38.70;;;;;;5114689;28;20463;-72
2022/03/13 08:47:38;;;;;;;12.67;10.70;;;12.60;38.80;;;;;;5114253;28;21026;-72
2022/03/13 08:50:05;;;;;;;12.73;11.03;;;12.80;38.70;;;;;;5114166;28;20449;-72
2022/03/13 08:52:34;;;;;;;12.27;10.37;;;12.80;37.40;;;;;;5114419;28;20466;-72
2022/03/13 08:55:01;;;;;;;16.33;11.10;;;12.90;37.10;;;;;;5114559;28;21069;-72
2022/03/13 08:57:29;;;;;;;11.93;10.73;;;12.90;37.50;;;;;;5114426;28;20462;-72
2022/03/13 08:59:56;;;;;;;11.90;10.03;;;12.90;37.40;;;;;;5114079;28;20818;-72
2022/03/13 09:02:23;;;;;;;11.90;10.17;;;13.00;37.30;;;;;;5114268;28;20451;-72
2022/03/13 09:04:50;;;;;;;13.60;10.50;;;13.10;37.70;;;;;;5114307;28;20458;-71
2022/03/13 09:07:16;;;;;;;11.23;9.90;;;13.30;37.60;;;;;;5114319;28;20478;-72
2022/03/13 09:09:43;;;;;;;12.40;11.10;;;13.40;36.90;;;;;;5113874;28;20940;-72
2022/03/13 09:12:11;;;;;;;14.60;10.83;;;13.50;37.00;;;;;;5113824;28;20541;-72
2022/03/13 09:14:40;;;;;;;13.90;11.67;;;13.70;37.40;;;;;;5113745;28;20523;-72
2022/03/13 09:17:06;;;;;;;13.80;10.10;;;13.70;36.10;;;;;;5114095;28;20470;-72
2022/03/13 09:19:34;;;;;;;12.50;11.07;;;13.80;36.00;;;;;;5113913;28;20431;-71
2022/03/13 09:22:00;;;;;;;11.80;10.60;;;13.80;36.60;;;;;;5114061;28;20461;-72
2022/03/13 09:24:28;;;;;;;14.67;11.67;;;13.70;36.50;;;;;;5114799;28;20443;-73
2022/03/13 09:26:54;;;;;;;14.35;11.05;;;13.80;36.50;;;;;;5114189;28;20517;-74
2022/03/13 09:29:21;;;;;;;12.43;11.23;;;13.80;36.90;;;;;;5113631;28;20321;-74
2022/03/13 09:31:50;;;;;;;13.70;10.77;;;13.90;36.60;;;;;;5113888;28;20466;-74
2022/03/13 09:34:16;;;;;;;14.10;11.80;;;13.90;36.30;;;;;;5112943;28;20461;-74
2022/03/13 09:36:43;;;;;;;20.90;12.63;;;14.00;36.60;;;;;;5113691;28;20217;-75
2022/03/13 09:39:10;;;;;;;14.43;12.93;;;14.00;34.50;;;;;;5112479;28;20440;-75
2022/03/13 09:41:38;;;;;;;13.73;12.33;;;14.10;33.80;;;;;;5113579;28;20957;-73
2022/03/13 09:44:07;;;;;;;16.27;12.33;;;14.00;34.20;;;;;;5114098;28;20484;-75
2022/03/13 09:46:36;;;;;;;16.77;12.10;;;13.90;33.70;;;;;;5113696;28;20499;-75
2022/03/13 09:49:04;;;;;;;15.43;12.77;;;13.90;35.00;;;;;;5113764;28;20446;-75
2022/03/13 09:51:31;;;;;;;16.50;12.40;;;13.90;34.70;;;;;;5113547;28;20454;-75
2022/03/13 09:53:59;;;;;;;14.50;12.23;;;14.00;35.20;;;;;;5113547;28;20466;-75
2022/03/13 09:56:26;;;;;;;13.20;11.47;;;14.20;35.50;;;;;;5113501;28;20480;-75
2022/03/13 09:58:53;;;;;;;14.83;11.63;;;14.30;35.20;;;;;;5113161;28;21040;-75
2022/03/13 10:01:19;;;;;;;13.23;11.83;;;14.50;35.10;;;;;;5113274;28;20427;-75
2022/03/13 10:03:46;;;;;;;12.93;11.50;;;14.70;34.80;;;;;;5113512;28;20434;-75
2022/03/13 10:06:14;;;;;;;14.53;13.00;;;14.90;34.50;;;;;;5113337;28;20450;-75
2022/03/13 10:08:41;;;;;;;14.90;13.00;;;15.30;34.40;;;;;;5113524;28;20451;-75
2022/03/13 10:11:08;;;;;;;14.70;11.93;;;15.60;33.70;;;;;;5113497;28;20451;-75
2022/03/13 10:13:37;;;;;;;15.90;12.77;;;16.00;33.60;;;;;;5113365;28;20485;-75
2022/03/13 10:16:05;;;;;;;14.23;12.73;;;16.40;33.10;;;;;;5113302;28;20454;-75
2022/03/13 10:18:33;;;;;;;13.43;12.03;;;16.90;32.70;;;;;;5113424;28;20476;-75
2022/03/13 10:21:07;;;;;;;19.83;12.33;;;17.30;31.30;;;;;;5113333;28;20454;-75
2022/03/13 10:23:35;;;;;;;12.77;11.33;;;17.70;31.50;;;;;;5113180;28;20909;-76
2022/03/13 10:26:04;;;;;;;12.90;11.60;;;18.20;31.00;;;;;;5113312;28;20439;-76
2022/03/13 10:28:33;;;;;;;14.70;12.17;;;18.70;30.60;;;;;;5113199;28;20435;-76
2022/03/13 10:31:11;;;;;;;14.30;12.90;;;19.20;30.00;;;;;;5112967;28;20469;-76
2022/03/13 10:33:55;;;;;;;13.60;12.20;;;19.70;29.70;;;;;;5113005;28;20506;-76
2022/03/13 10:36:25;;;;;;;17.33;12.70;;;20.00;28.40;;;;;;5113262;28;20467;-76
2022/03/13 10:38:53;;;;;;;15.90;13.50;;;20.40;28.30;;;;;;5116145;28;20997;-76
2022/03/13 10:41:20;;;;;;;19.63;14.23;;;20.80;27.80;;;;;;5116597;28;20957;-76
2022/03/13 10:43:57;;;;;;;13.50;12.20;;;21.30;27.50;;;;;;5116904;28;20454;-76
2022/03/13 10:46:25;;;;;;;14.17;11.80;;;21.70;27.40;;;;;;5116428;28;21004;-76
2022/03/13 10:48:54;;;;;;;14.17;12.87;;;22.20;26.80;;;;;;5117298;28;20477;-74
2022/03/13 10:51:33;;;;;;;15.00;13.40;;;22.70;26.40;;;;;;5118569;28;20443;-76
2022/03/13 10:54:02;;;;;;;17.27;13.30;;;23.30;25.80;;;;;;5120448;28;20470;-71
2022/03/13 10:56:29;;;;;;;15.63;12.90;;;23.70;25.30;;;;;;5119526;28;20467;-73
2022/03/13 10:58:58;;;;;;;17.43;13.63;;;24.30;25.10;;;;;;5121019;28;20443;-74
2022/03/13 11:01:25;;;;;;;14.57;13.00;;;24.70;24.60;;;;;;5120434;28;20458;-74
2022/03/13 11:03:54;;;;;;;15.07;13.50;;;25.20;24.10;;;;;;5120432;28;20461;-78
2022/03/13 11:06:23;;;;;;;14.63;13.07;;;25.70;23.80;;;;;;5121028;28;20485;-74
2022/03/13 11:08:54;;;;;;;17.13;13.37;;;26.10;23.40;;;;;;5119697;28;20450;-74
2022/03/13 11:11:22;;;;;;;15.00;13.60;;;26.60;23.20;;;;;;5119322;28;20435;-75
2022/03/13 11:13:52;;;;;;;15.50;14.00;;;27.00;22.80;;;;;;5118011;28;20463;-75
2022/03/13 11:16:23;;;;;;;15.13;13.80;;;27.40;22.30;;;;;;5116853;28;20454;-74
2022/03/13 11:18:52;;;;;;;15.83;14.33;;;27.90;22.00;;;;;;5116414;28;20909;-74
2022/03/13 11:21:20;;;;;;;15.43;13.63;;;28.20;21.80;;;;;;5116951;28;20447;-74
2022/03/13 11:23:49;;;;;;;15.80;14.40;;;28.60;21.40;;;;;;5116933;28;20492;-74
2022/03/13 11:26:16;;;;;;;14.50;13.20;;;29.00;20.80;;;;;;5116154;28;20933;-74
2022/03/13 11:28:46;;;;;;;15.63;14.17;;;29.30;20.60;;;;;;5116815;27;20431;-74
2022/03/13 11:31:30;;;;;;;16.23;14.53;;;29.50;20.00;;;;;;5116328;28;20450;-74
2022/03/13 11:34:11;;;;;;;15.50;14.10;;;29.80;20.10;;;;;;5116632;28;20579;-74
2022/03/13 11:36:39;;;;;;;15.77;14.47;;;30.00;19.80;;;;;;5116969;28;20474;-74
2022/03/13 11:39:08;;;;;;;14.77;13.57;;;30.30;19.70;;;;;;5116626;28;20826;-74
2022/03/13 11:41:37;;;;;;;16.30;14.90;;;30.60;19.40;;;;;;5116674;28;20454;-74
2022/03/13 11:44:38;;;;;;;17.10;15.47;;;30.90;19.30;;;;;;5116285;28;20457;-74
2022/03/13 11:47:22;;;;;;;16.30;14.90;;;31.00;18.90;;;;;;5116337;28;20466;-74
2022/03/13 11:49:49;;;;;;;18.63;15.07;;;31.10;18.80;;;;;;5116372;28;20449;-75
2022/03/13 11:52:26;;;;;;;17.30;15.80;;;31.10;18.90;;;;;;5117159;28;20795;-74
2022/03/13 11:54:57;;;;;;;16.87;15.23;;;31.30;18.80;;;;;;5116254;28;20488;-75
2022/03/13 11:57:26;;;;;;;16.87;15.40;;;31.50;18.90;;;;;;5116721;28;20475;-74
2022/03/13 12:00:29;;;;;;;17.40;15.73;;;31.80;18.30;;;;;;5115585;28;20477;-74
2022/03/13 12:03:12;;;;;;;16.60;15.20;;;32.20;18.60;;;;;;5115705;28;20434;-74
2022/03/13 12:05:52;;;;;;;17.30;15.80;;;32.60;18.30;;;;;;5115206;28;20476;-74
2022/03/13 12:08:22;;;;;;;17.87;16.37;;;33.00;17.80;;;;;;5115581;28;20506;-72
2022/03/13 12:10:50;;;;;;;18.33;16.80;;;33.40;17.80;;;;;;5115732;28;20434;-72
2022/03/13 12:13:19;;;;;;;17.80;16.30;;;33.80;17.60;;;;;;5115528;28;20457;-72
2022/03/13 12:15:48;;;;;;;17.47;15.97;;;34.10;16.90;;;;;;5115354;28;20478;-72
2022/03/13 12:18:17;;;;;;;17.83;16.43;;;34.40;16.90;;;;;;5114997;28;21003;-71
2022/03/13 12:20:45;;;;;;;16.93;15.60;;;34.70;17.10;;;;;;5115282;28;20499;-71
2022/03/13 12:23:25;;;;;;;17.07;15.67;;;34.90;16.70;;;;;;5115504;28;20462;-72
2022/03/13 12:25:54;;;;;;;17.40;15.90;;;35.00;16.40;;;;;;5115721;28;20461;-72
2022/03/13 12:28:33;;;;;;;17.23;15.73;;;35.10;16.40;;;;;;5115602;28;20220;-73
2022/03/13 12:31:04;;;;;;;18.23;16.63;;;35.40;15.80;;;;;;5115217;28;20211;-73
2022/03/13 12:33:33;;;;;;;18.27;16.67;;;35.60;15.80;;;;;;5115297;28;20196;-73
2022/03/13 12:36:02;;;;;;;17.20;15.70;;;35.80;15.70;;;;;;5114984;28;20212;-72